createdAt,value
2022-08-19T00:01:28.967Z,4.60
2022-08-19T00:03:58.940Z,4.35
2022-08-19T00:06:26.633Z,4.50
2022-08-19T00:08:54.298Z,4.57
2022-08-19T00:11:25.998Z,4.55
2022-08-19T00:13:53.976Z,4.47
2022-08-19T00:16:26.362Z,4.65
2022-08-19T00:18:54.613Z,4.50
2022-08-19T00:21:22.314Z,4.20
2022-08-19T00:23:49.988Z,4.18
2022-08-19T00:26:17.675Z,4.32
2022-08-19T00:28:45.342Z,4.35
2022-08-19T00:31:13.020Z,4.22
2022-08-19T00:33:42.032Z,4.53
2022-08-19T00:36:10.268Z,4.35
2022-08-19T00:38:38.544Z,4.18
2022-08-19T00:41:06.828Z,4.70
2022-08-19T00:43:34.548Z,4.35
2022-08-19T00:46:03.812Z,4.97
2022-08-19T00:48:31.518Z,4.20
2022-08-19T00:51:00.720Z,4.22
2022-08-19T00:53:29.463Z,4.82
2022-08-19T00:55:58.224Z,4.47
2022-08-19T00:58:28.314Z,4.45
2022-08-19T01:00:56.069Z,4.47
2022-08-19T01:03:24.021Z,4.50
2022-08-19T01:05:52.439Z,4.22
2022-08-19T01:08:21.572Z,5.15
2022-08-19T01:10:52.331Z,4.85
2022-08-19T01:13:21.024Z,4.53
2022-08-19T01:15:50.532Z,4.82
2022-08-19T01:18:19.016Z,4.88
2022-08-19T01:20:46.992Z,4.53
2022-08-19T01:23:16.377Z,4.60
2022-08-19T01:25:47.296Z,4.88
2022-08-19T01:28:33.576Z,4.50
2022-08-19T01:31:08.257Z,5.10
2022-08-19T01:33:36.075Z,4.40
2022-08-19T01:36:08.574Z,4.43
2022-08-19T01:38:44.047Z,4.50
2022-08-19T01:41:12.382Z,4.78
2022-08-19T01:44:09.947Z,4.85
2022-08-19T01:46:27.772Z,4.88
2022-08-19T01:48:55.463Z,4.95
2022-08-19T01:51:23.151Z,4.85
2022-08-19T01:53:52.624Z,4.65
2022-08-19T01:56:20.671Z,5.13
2022-08-19T01:58:51.647Z,4.47
2022-08-19T02:01:19.541Z,5.18
2022-08-19T02:03:47.662Z,4.57
2022-08-19T02:06:17.849Z,4.80
2022-08-19T02:08:48.609Z,4.25
2022-08-19T02:11:24.443Z,4.82
2022-08-19T02:13:52.156Z,4.90
2022-08-19T02:16:20.280Z,4.53
2022-08-19T02:18:49.391Z,4.90
2022-08-19T02:21:17.295Z,4.25
2022-08-19T02:23:45.067Z,4.85
2022-08-19T02:26:13.267Z,5.10
2022-08-19T02:28:42.496Z,4.45
2022-08-19T02:31:11.174Z,5.20
2022-08-19T02:33:40.195Z,4.60
2022-08-19T02:36:08.743Z,4.80
2022-08-19T02:38:35.666Z,4.53
2022-08-19T02:41:05.296Z,4.63
2022-08-19T02:43:36.630Z,4.93
2022-08-19T02:46:13.582Z,4.78
2022-08-19T02:48:41.328Z,4.82
2022-08-19T02:51:09.050Z,4.85
2022-08-19T02:53:36.751Z,4.75
2022-08-19T02:56:08.137Z,4.60
2022-08-19T02:58:35.844Z,4.43
2022-08-19T03:01:03.634Z,4.78
2022-08-19T03:03:32.846Z,4.70
2022-08-19T03:06:08.294Z,5.03
2022-08-19T03:08:36.031Z,4.78
2022-08-19T03:11:03.747Z,5.07
2022-08-19T03:13:31.416Z,5.15
2022-08-19T03:15:59.123Z,4.82
2022-08-19T03:18:27.440Z,4.70
2022-08-19T03:20:57.007Z,5.03
2022-08-19T03:23:24.893Z,4.88
2022-08-19T03:26:03.981Z,4.95
2022-08-19T03:28:42.438Z,5.03
2022-08-19T03:31:41.604Z,4.95
2022-08-19T03:34:05.402Z,5.10
2022-08-19T03:36:37.212Z,4.63
2022-08-19T03:39:05.312Z,4.88
2022-08-19T03:41:34.235Z,5.20
2022-08-19T03:44:12.617Z,4.82
2022-08-19T03:46:46.154Z,4.88
2022-08-19T03:49:13.941Z,5.20
2022-08-19T03:51:43.852Z,4.68
2022-08-19T03:54:13.669Z,5.00
2022-08-19T03:56:41.768Z,5.18
2022-08-19T03:59:11.655Z,5.05
2022-08-19T04:01:39.445Z,4.93
2022-08-19T04:04:07.127Z,5.47
2022-08-19T04:06:35.993Z,5.15
2022-08-19T04:09:09.493Z,4.97
2022-08-19T04:11:43.470Z,5.32
2022-08-19T04:14:12.780Z,5.20
2022-08-19T04:16:40.444Z,5.10
2022-08-19T04:19:08.322Z,5.78
2022-08-19T04:21:36.169Z,5.13
2022-08-19T04:24:04.480Z,5.38
2022-08-19T04:26:35.480Z,5.70
2022-08-19T04:29:03.610Z,5.43
2022-08-19T04:31:33.476Z,5.65
2022-08-19T04:34:02.380Z,5.40
2022-08-19T04:36:31.282Z,6.00
2022-08-19T04:39:00.196Z,5.40
2022-08-19T04:41:45.529Z,5.30
2022-08-19T04:44:14.738Z,5.07
2022-08-19T04:46:51.201Z,5.43
2022-08-19T04:49:20.680Z,5.32
2022-08-19T04:51:49.072Z,5.85
2022-08-19T04:54:23.947Z,5.57
2022-08-19T04:57:06.954Z,5.65
2022-08-19T04:59:36.044Z,5.97
2022-08-19T05:02:04.059Z,5.35
2022-08-19T05:04:32.730Z,5.57
2022-08-19T05:07:01.637Z,6.13
2022-08-19T05:09:53.313Z,5.85
2022-08-19T05:12:17.529Z,5.55
2022-08-19T05:14:48.165Z,6.03
2022-08-19T05:17:36.210Z,5.28
2022-08-19T05:20:22.147Z,5.93
2022-08-19T05:22:49.974Z,5.90
2022-08-19T05:25:19.808Z,6.45
2022-08-19T05:27:47.538Z,6.15
2022-08-19T05:30:16.652Z,5.40
2022-08-19T05:32:44.589Z,5.97
2022-08-19T05:35:12.437Z,5.95
2022-08-19T05:37:41.098Z,5.72
2022-08-19T05:40:10.338Z,6.05
2022-08-19T05:42:38.294Z,5.75
2022-08-19T05:45:06.782Z,5.90
2022-08-19T05:47:36.471Z,5.68
2022-08-19T05:50:10.324Z,6.43
2022-08-19T05:52:43.797Z,6.28
2022-08-19T05:55:17.752Z,6.35
2022-08-19T05:57:45.432Z,6.63
2022-08-19T06:00:14.807Z,6.75
2022-08-19T06:02:43.859Z,6.65
2022-08-19T06:05:12.275Z,6.82
2022-08-19T06:07:40.618Z,6.60
2022-08-19T06:10:23.495Z,6.70
2022-08-19T06:12:51.198Z,6.50
2022-08-19T06:15:18.903Z,6.82
2022-08-19T06:17:47.986Z,6.50
2022-08-19T06:20:16.309Z,6.55
2022-08-19T06:22:44.828Z,7.10
2022-08-19T06:25:12.660Z,6.90
2022-08-19T06:27:58.635Z,6.38
2022-08-19T06:30:28.410Z,6.10
2022-08-19T06:32:57.424Z,6.47
2022-08-19T06:35:26.248Z,6.65
2022-08-19T06:37:54.782Z,6.50
2022-08-19T06:40:23.079Z,6.25
2022-08-19T06:42:55.025Z,6.40
2022-08-19T06:45:24.544Z,6.63
2022-08-19T06:47:56.737Z,6.43
2022-08-19T06:50:25.963Z,6.50
2022-08-19T06:52:55.142Z,6.75
2022-08-19T06:55:22.999Z,6.60
2022-08-19T06:57:54.551Z,7.13
2022-08-19T07:00:22.895Z,6.43
2022-08-19T07:02:53.369Z,6.72
2022-08-19T07:05:25.118Z,6.68
2022-08-19T07:07:53.319Z,6.72
2022-08-19T07:10:26.072Z,7.30
2022-08-19T07:12:54.717Z,7.03
2022-08-19T07:15:24.175Z,6.72
2022-08-19T07:17:52.712Z,6.43
2022-08-19T07:20:20.905Z,6.72
2022-08-19T07:22:50.211Z,6.78
2022-08-19T07:25:19.484Z,6.90
2022-08-19T07:27:54.232Z,6.95
2022-08-19T07:30:24.053Z,7.05
2022-08-19T07:32:54.534Z,7.00
2022-08-19T07:35:22.556Z,6.82
2022-08-19T07:37:51.822Z,6.90
2022-08-19T07:40:19.631Z,6.80
2022-08-19T07:42:47.483Z,7.50
2022-08-19T07:45:16.905Z,7.65
2022-08-19T07:47:49.616Z,7.57
2022-08-19T07:50:20.308Z,7.38
2022-08-19T07:52:50.343Z,7.25
2022-08-19T07:55:40.741Z,7.47
2022-08-19T07:58:10.823Z,7.22
2022-08-19T08:00:38.640Z,7.43
2022-08-19T08:03:06.474Z,7.65
2022-08-19T08:05:52.044Z,7.22
2022-08-19T08:08:37.499Z,6.82
2022-08-19T08:11:15.409Z,7.65
2022-08-19T08:13:44.059Z,7.43
2022-08-19T08:16:14.386Z,7.30
2022-08-19T08:18:50.735Z,6.95
2022-08-19T08:21:21.088Z,7.28
2022-08-19T08:23:49.099Z,6.97
2022-08-19T08:26:19.301Z,7.13
2022-08-19T08:28:49.578Z,6.78
2022-08-19T08:31:19.449Z,7.03
2022-08-19T08:33:48.139Z,6.55
2022-08-19T08:36:16.088Z,7.40
2022-08-19T08:38:46.259Z,7.35
2022-08-19T08:41:21.192Z,8.65
2022-08-19T08:43:50.099Z,8.15
2022-08-19T08:46:32.297Z,7.00
2022-08-19T08:49:04.609Z,20.45
2022-08-19T08:54:14.137Z,13.07
2022-08-19T08:56:43.872Z,13.98
2022-08-19T08:59:14.596Z,14.00
2022-08-19T09:01:42.369Z,25.10
2022-08-19T09:04:10.136Z,12.57
2022-08-19T09:06:40.974Z,12.93
2022-08-19T09:09:15.136Z,18.20
2022-08-19T09:11:51.367Z,15.65
2022-08-19T09:14:50.166Z,18.38
2022-08-19T09:17:19.498Z,16.95
2022-08-19T09:19:54.884Z,19.13
2022-08-19T09:22:25.440Z,12.13
2022-08-19T09:24:54.184Z,15.23
2022-08-19T09:27:42.376Z,16.05
2022-08-19T09:30:12.945Z,21.88
2022-08-19T09:32:43.213Z,20.38
2022-08-19T09:35:11.225Z,94.82
2022-08-19T09:37:40.343Z,145.18
2022-08-19T09:40:09.343Z,28.95
2022-08-19T09:42:50.017Z,28.50
2022-08-19T09:45:22.390Z,26.02
2022-08-19T09:47:52.041Z,25.23
2022-08-19T09:50:22.152Z,37.03
2022-08-19T09:52:55.083Z,37.60
2022-08-19T09:55:31.501Z,45.00
2022-08-19T09:58:02.391Z,41.30
2022-08-19T10:00:31.614Z,51.10
2022-08-19T10:02:59.329Z,33.90
2022-08-19T10:05:44.693Z,65.60
2022-08-19T10:08:16.680Z,61.78
2022-08-19T10:10:46.673Z,40.53
2022-08-19T10:13:19.569Z,39.92
2022-08-19T10:15:49.377Z,29.23
2022-08-19T10:18:18.609Z,35.28
2022-08-19T10:20:51.661Z,44.97
2022-08-19T10:23:20.002Z,50.35
2022-08-19T10:25:48.304Z,52.70
2022-08-19T10:28:19.325Z,38.05
2022-08-19T10:30:47.746Z,41.45
2022-08-19T10:33:16.088Z,42.65
2022-08-19T10:36:04.241Z,108.93
2022-08-19T10:38:33.051Z,51.92
2022-08-19T10:41:07.808Z,42.22
2022-08-19T10:43:39.099Z,49.88
2022-08-19T10:46:14.221Z,37.85
2022-08-19T10:48:44.602Z,38.75
2022-08-19T10:51:29.749Z,47.63
2022-08-19T10:53:57.724Z,43.85
2022-08-19T10:56:43.153Z,32.15
2022-08-19T10:59:13.545Z,29.55
2022-08-19T11:01:41.599Z,31.55
2022-08-19T11:04:12.043Z,29.70
2022-08-19T11:06:42.390Z,31.00
2022-08-19T11:09:10.079Z,27.45
2022-08-19T11:11:41.552Z,25.85
2022-08-19T11:14:10.323Z,23.75
2022-08-19T11:16:40.046Z,32.70
2022-08-19T11:19:09.079Z,25.80
2022-08-19T11:21:37.939Z,26.15
2022-08-19T11:24:07.676Z,33.88
2022-08-19T11:26:36.108Z,26.83
2022-08-19T11:29:03.963Z,19.52
2022-08-19T11:31:32.818Z,24.77
2022-08-19T11:34:04.020Z,22.30
2022-08-19T11:36:32.736Z,26.20
2022-08-19T11:39:00.440Z,24.23
2022-08-19T11:41:28.282Z,26.48
2022-08-19T11:43:56.278Z,20.20
2022-08-19T11:46:24.707Z,23.77
2022-08-19T11:48:52.498Z,23.67
2022-08-19T11:51:23.373Z,15.10
2022-08-19T11:53:51.553Z,17.40
2022-08-19T11:56:19.553Z,22.45
2022-08-19T11:58:47.315Z,15.77
2022-08-19T12:01:16.826Z,21.08
2022-08-19T12:03:44.760Z,47.22
2022-08-19T12:06:14.692Z,15.35
2022-08-19T12:08:44.126Z,11.68
2022-08-19T12:11:12.059Z,14.55
2022-08-19T12:13:39.876Z,13.85
2022-08-19T12:16:13.263Z,13.82
2022-08-19T12:18:42.371Z,16.33
2022-08-19T12:21:11.833Z,12.02
2022-08-19T12:23:39.592Z,13.80
2022-08-19T12:26:08.791Z,12.52
2022-08-19T12:28:36.477Z,12.02
2022-08-19T12:31:04.235Z,11.88
2022-08-19T12:33:32.972Z,14.68
2022-08-19T12:36:02.407Z,11.98
2022-08-19T12:38:30.101Z,12.77
2022-08-19T12:41:00.297Z,11.23
2022-08-19T12:43:31.274Z,13.20
2022-08-19T12:45:59.021Z,11.15
2022-08-19T12:48:33.351Z,17.05
2022-08-19T12:51:03.552Z,13.13
2022-08-19T12:53:31.276Z,12.07
2022-08-19T12:55:59.122Z,11.15
2022-08-19T12:58:27.550Z,15.73
2022-08-19T13:00:56.708Z,11.80
2022-08-19T13:03:29.896Z,13.88
2022-08-19T13:05:57.580Z,10.57
2022-08-19T13:08:25.327Z,12.63
2022-08-19T13:10:53.013Z,14.38
2022-08-19T13:13:20.806Z,10.63
2022-08-19T13:15:48.538Z,10.65
2022-08-19T13:18:17.741Z,11.60
2022-08-19T13:20:52.591Z,11.20
2022-08-19T13:23:20.817Z,10.52
2022-08-19T13:25:57.789Z,10.68
2022-08-19T13:28:29.121Z,11.65
2022-08-19T13:31:14.921Z,10.40
2022-08-19T13:33:43.992Z,9.85
2022-08-19T13:36:11.695Z,9.75
2022-08-19T13:38:40.044Z,13.43
2022-08-19T13:41:12.141Z,14.18
2022-08-19T13:43:42.426Z,15.27
2022-08-19T13:46:10.868Z,12.05
2022-08-19T13:48:38.560Z,10.32
2022-08-19T13:51:11.591Z,9.98
2022-08-19T13:53:39.544Z,9.75
2022-08-19T13:56:07.939Z,12.65
2022-08-19T13:58:35.612Z,11.75
2022-08-19T14:01:03.393Z,11.25
2022-08-19T14:03:31.160Z,14.02
2022-08-19T14:05:58.877Z,14.82
2022-08-19T14:08:28.808Z,17.08
2022-08-19T14:10:56.547Z,19.75
2022-08-19T14:13:24.688Z,20.88
2022-08-19T14:15:52.919Z,17.45
2022-08-19T14:18:20.747Z,24.27
2022-08-19T14:20:48.445Z,20.23
2022-08-19T14:23:16.124Z,17.92
2022-08-19T14:25:45.443Z,17.95
2022-08-19T14:28:13.142Z,21.83
2022-08-19T14:30:40.960Z,14.48
2022-08-19T14:33:09.285Z,15.45
2022-08-19T14:35:37.212Z,17.38
2022-08-19T14:38:05.378Z,19.88
2022-08-19T14:40:33.391Z,21.50
2022-08-19T14:43:05.003Z,17.88
2022-08-19T14:45:33.221Z,20.30
2022-08-19T14:48:01.592Z,17.77
2022-08-19T14:50:29.684Z,18.70
2022-08-19T14:53:00.708Z,17.23
2022-08-19T14:55:31.339Z,27.73
2022-08-19T14:57:59.203Z,24.88
2022-08-19T15:00:29.960Z,18.80
2022-08-19T15:02:57.689Z,17.30
2022-08-19T15:05:25.387Z,18.50
2022-08-19T15:07:55.224Z,20.35
2022-08-19T15:10:24.452Z,19.65
2022-08-19T15:12:52.501Z,16.77
2022-08-19T15:15:20.687Z,10.15
2022-08-19T15:17:49.712Z,10.65
2022-08-19T15:20:18.631Z,10.95
2022-08-19T15:22:46.417Z,12.13
2022-08-19T15:25:16.289Z,17.65
2022-08-19T15:27:44.321Z,17.05
2022-08-19T15:30:13.160Z,12.18
2022-08-19T15:32:41.178Z,13.10
2022-08-19T15:35:10.340Z,14.35
2022-08-19T15:37:38.114Z,11.48
2022-08-19T15:40:07.472Z,11.50
2022-08-19T15:42:35.794Z,11.98
2022-08-19T15:45:03.547Z,13.93
2022-08-19T15:47:34.612Z,12.55
2022-08-19T15:50:06.380Z,13.98
2022-08-19T15:52:49.449Z,10.30
2022-08-19T15:55:32.512Z,12.30
2022-08-19T15:58:27.747Z,10.98
2022-08-19T16:01:15.596Z,10.70
2022-08-19T16:04:01.436Z,13.88
2022-08-19T16:06:29.580Z,14.00
2022-08-19T16:08:59.953Z,15.38
2022-08-19T16:11:30.296Z,12.65
2022-08-19T16:13:59.102Z,16.70
2022-08-19T16:16:31.038Z,16.95
2022-08-19T16:19:02.578Z,19.42
2022-08-19T16:21:33.117Z,24.35
2022-08-19T16:24:04.144Z,17.50
2022-08-19T16:26:31.880Z,14.65
2022-08-19T16:28:59.804Z,17.88
2022-08-19T16:31:27.735Z,16.63
2022-08-19T16:33:55.731Z,15.13
2022-08-19T16:36:24.614Z,17.35
2022-08-19T16:38:53.117Z,15.02
2022-08-19T16:41:22.890Z,18.80
2022-08-19T16:43:52.542Z,15.73
2022-08-19T16:46:20.347Z,15.90
2022-08-19T16:48:51.327Z,16.20
2022-08-19T16:51:19.019Z,14.90
2022-08-19T16:53:46.809Z,13.68
2022-08-19T16:56:14.486Z,13.18
2022-08-19T16:58:44.185Z,12.02
2022-08-19T17:01:11.967Z,13.93
2022-08-19T17:03:39.884Z,15.98
2022-08-19T17:06:18.405Z,14.50
2022-08-19T17:08:49.377Z,11.30
2022-08-19T17:11:18.831Z,14.90
2022-08-19T17:13:48.482Z,11.55
2022-08-19T17:16:16.813Z,12.52
2022-08-19T17:18:44.966Z,13.43
2022-08-19T17:21:13.371Z,12.45
2022-08-19T17:23:43.632Z,10.63
2022-08-19T17:26:16.920Z,10.02
2022-08-19T17:28:48.992Z,10.35
2022-08-19T17:31:16.781Z,9.65
2022-08-19T17:33:48.474Z,11.43
2022-08-19T17:36:17.172Z,10.82
2022-08-19T17:38:44.929Z,12.02
2022-08-19T17:41:13.231Z,11.73
2022-08-19T17:43:43.777Z,10.13
2022-08-19T17:46:17.759Z,10.32
2022-08-19T17:48:51.411Z,11.05
2022-08-19T17:51:22.011Z,12.68
2022-08-19T17:53:50.568Z,9.57
2022-08-19T17:56:18.308Z,7.88
2022-08-19T17:58:49.661Z,12.30
2022-08-19T18:01:44.083Z,10.48
2022-08-19T18:04:18.739Z,11.30
2022-08-19T18:06:53.331Z,10.77
2022-08-19T18:09:23.824Z,10.23
2022-08-19T18:11:53.659Z,11.30
2022-08-19T18:14:28.132Z,8.43
2022-08-19T18:17:02.172Z,8.85
2022-08-19T18:19:40.614Z,11.48
2022-08-19T18:22:10.730Z,9.27
2022-08-19T18:24:39.014Z,7.78
2022-08-19T18:27:06.999Z,8.35
2022-08-19T18:29:38.291Z,7.82
2022-08-19T18:32:12.319Z,8.35
2022-08-19T18:34:40.781Z,8.63
2022-08-19T18:37:08.463Z,7.90
2022-08-19T18:39:54.115Z,7.82
2022-08-19T18:42:39.359Z,8.82
2022-08-19T18:45:25.262Z,8.90
2022-08-19T18:48:27.081Z,7.70
2022-08-19T18:50:56.873Z,9.20
2022-08-19T18:53:24.658Z,7.43
2022-08-19T18:55:55.088Z,7.05
2022-08-19T18:58:26.189Z,7.63
2022-08-19T19:00:55.773Z,7.47
2022-08-19T19:03:24.892Z,7.80
2022-08-19T19:05:53.020Z,7.80
2022-08-19T19:08:20.858Z,7.70
2022-08-19T19:10:55.565Z,7.75
2022-08-19T19:13:23.252Z,7.68
2022-08-19T19:15:51.558Z,8.88
2022-08-19T19:18:19.247Z,7.28
2022-08-19T19:20:48.284Z,7.55
2022-08-19T19:23:15.982Z,6.53
2022-08-19T19:25:50.676Z,8.10
2022-08-19T19:28:28.047Z,7.53
2022-08-19T19:30:57.443Z,8.07
2022-08-19T19:33:25.192Z,8.10
2022-08-19T19:35:54.168Z,8.82
2022-08-19T19:38:21.848Z,6.85
2022-08-19T19:40:49.556Z,7.00
2022-08-19T19:43:18.157Z,7.38
2022-08-19T19:45:46.880Z,6.72
2022-08-19T19:48:16.162Z,7.78
2022-08-19T19:50:44.068Z,6.93
2022-08-19T19:53:15.015Z,7.82
2022-08-19T19:55:42.826Z,8.07
2022-08-19T19:58:10.516Z,8.10
2022-08-19T20:00:38.196Z,7.03
2022-08-19T20:03:06.732Z,6.88
2022-08-19T20:05:34.453Z,8.10
2022-08-19T20:08:28.052Z,7.97
2022-08-19T20:10:57.520Z,7.72
2022-08-19T20:13:25.212Z,7.78
2022-08-19T20:15:52.897Z,8.02
2022-08-19T20:18:20.914Z,8.13
2022-08-19T20:20:49.983Z,8.05
2022-08-19T20:23:17.690Z,7.72
2022-08-19T20:25:45.381Z,8.10
2022-08-19T20:28:14.560Z,8.02
2022-08-19T20:30:46.329Z,8.13
2022-08-19T20:33:14.529Z,8.50
2022-08-19T20:35:43.258Z,7.72
2022-08-19T20:38:10.968Z,8.45
2022-08-19T20:40:39.210Z,7.82
2022-08-19T20:43:09.113Z,8.25
2022-08-19T20:45:38.228Z,8.50
2022-08-19T20:48:07.021Z,8.18
2022-08-19T20:50:35.801Z,8.00
2022-08-19T20:53:09.243Z,8.25
2022-08-19T20:55:37.064Z,8.35
2022-08-19T20:58:04.820Z,7.88
2022-08-19T21:00:32.703Z,8.35
2022-08-19T21:03:01.840Z,7.53
2022-08-19T21:05:30.692Z,7.70
2022-08-19T21:07:58.739Z,8.35
2022-08-19T21:10:27.425Z,7.68
2022-08-19T21:12:55.414Z,7.53
2022-08-19T21:15:24.512Z,7.88
2022-08-19T21:17:52.363Z,7.20
2022-08-19T21:20:21.828Z,7.45
2022-08-19T21:22:49.586Z,7.70
2022-08-19T21:25:17.460Z,7.68
2022-08-19T21:27:45.155Z,7.63
2022-08-19T21:30:14.046Z,7.47
2022-08-19T21:32:41.781Z,7.25
2022-08-19T21:35:09.661Z,7.60
2022-08-19T21:37:38.769Z,7.50
2022-08-19T21:40:07.571Z,7.55
2022-08-19T21:42:35.290Z,7.10
2022-08-19T21:45:03.517Z,7.20
2022-08-19T21:47:31.263Z,7.78
2022-08-19T21:49:58.996Z,7.47
2022-08-19T21:52:26.915Z,7.60
2022-08-19T21:54:56.213Z,7.50
2022-08-19T21:57:24.494Z,8.00
2022-08-19T21:59:52.544Z,8.13
2022-08-19T22:02:21.591Z,7.60
2022-08-19T22:04:49.814Z,7.97
2022-08-19T22:07:17.593Z,7.80
2022-08-19T22:09:45.551Z,8.30
2022-08-19T22:12:24.814Z,8.18
2022-08-19T22:14:52.756Z,9.68
2022-08-19T22:17:20.721Z,10.45
2022-08-19T22:19:48.443Z,10.15
2022-08-19T22:22:21.110Z,10.15
2022-08-19T22:24:48.889Z,11.48
2022-08-19T22:27:18.021Z,11.27
2022-08-19T22:29:45.723Z,10.95
2022-08-19T22:32:26.756Z,11.65
2022-08-19T22:34:58.341Z,12.07
2022-08-19T22:37:26.234Z,11.38
2022-08-19T22:39:54.058Z,13.10
2022-08-19T22:42:23.119Z,11.40
2022-08-19T22:44:51.442Z,11.98
2022-08-19T22:47:19.293Z,12.63
2022-08-19T22:49:47.026Z,13.70
2022-08-19T22:52:17.595Z,12.73
2022-08-19T22:54:46.590Z,12.77
2022-08-19T22:57:14.316Z,12.52
2022-08-19T22:59:43.387Z,14.30
2022-08-19T23:02:11.820Z,13.35
2022-08-19T23:04:39.554Z,13.65
2022-08-19T23:07:07.582Z,14.38
2022-08-19T23:09:35.420Z,14.80
2022-08-19T23:12:04.978Z,14.27
2022-08-19T23:14:32.694Z,14.85
2022-08-19T23:17:02.313Z,16.02
2022-08-19T23:19:30.474Z,14.32
2022-08-19T23:21:58.277Z,15.15
2022-08-19T23:24:26.168Z,16.35
2022-08-19T23:27:11.604Z,15.35
2022-08-19T23:29:56.993Z,16.70
2022-08-19T23:32:26.369Z,18.00
2022-08-19T23:34:56.113Z,17.65
2022-08-19T23:37:25.525Z,17.15
2022-08-19T23:39:53.394Z,16.67
2022-08-19T23:42:21.245Z,17.80
2022-08-19T23:44:51.855Z,18.40
2022-08-19T23:47:20.330Z,17.67
2022-08-19T23:49:49.536Z,18.65
2022-08-19T23:52:17.256Z,17.90
2022-08-19T23:54:44.988Z,18.40
2022-08-19T23:57:13.503Z,18.75
2022-08-19T23:59:42.784Z,20.33
